-17.03C
облачно с прояснениями
облачно с прояснениями
Дата и времяТемператураДавление, мм рт.ст.Влажность, %Осадки
МинимумМаксимум
04.12.2022 14:00-17.03C-17.03C77599облачно с прояснениями
04.12.2022 17:00-20.28C-18.11C776100облачно с прояснениями
04.12.2022 20:00-22.95C-20.98C777100облачно с прояснениями
04.12.2022 23:00-23.88C-23.88C779100облачно с прояснениями
05.12.2022 02:00-22.76C-22.76C780100пасмурно
05.12.2022 05:00-20.84C-20.84C78099пасмурно
05.12.2022 08:00-19.28C-19.28C77998пасмурно
05.12.2022 11:00-17.07C-17.07C78096пасмурно
05.12.2022 14:00-15.6C-15.6C77995пасмурно
05.12.2022 17:00-14.05C-14.05C77896пасмурно
05.12.2022 20:00-12.96C-12.96C77796небольшой снег
05.12.2022 23:00-12.12C-12.12C77796пасмурно
06.12.2022 02:00-12.7C-12.7C77797пасмурно
06.12.2022 05:00-13.35C-13.35C77796пасмурно
06.12.2022 08:00-13.66C-13.66C77796небольшой снег
06.12.2022 11:00-14.46C-14.46C77796пасмурно
06.12.2022 14:00-15.17C-15.17C77796пасмурно
06.12.2022 17:00-18.94C-18.94C77797пасмурно
06.12.2022 20:00-19.86C-19.86C77798облачно с прояснениями
06.12.2022 23:00-20.39C-20.39C77699облачно с прояснениями
07.12.2022 02:00-20.81C-20.81C77599облачно с прояснениями
07.12.2022 05:00-19.45C-19.45C77498пасмурно
07.12.2022 08:00-17.48C-17.48C77395пасмурно
07.12.2022 11:00-17.5C-17.5C77195пасмурно
07.12.2022 14:00-14.82C-14.82C76992пасмурно
07.12.2022 17:00-15.2C-15.2C76894пасмурно
07.12.2022 20:00-14.36C-14.36C76593пасмурно
07.12.2022 23:00-13.69C-13.69C76489пасмурно
08.12.2022 02:00-12.82C-12.82C76388небольшой снег
08.12.2022 05:00-12.57C-12.57C76290пасмурно
08.12.2022 08:00-14.59C-14.59C76296пасмурно
08.12.2022 11:00-13.48C-13.48C76395пасмурно
08.12.2022 14:00-14.77C-14.77C76396пасмурно
08.12.2022 17:00-17.37C-17.37C76498пасмурно
08.12.2022 20:00-17.65C-17.65C76497пасмурно
08.12.2022 23:00-16.55C-16.55C76495пасмурно
09.12.2022 02:00-16.6C-16.6C76396пасмурно
09.12.2022 05:00-16.65C-16.65C76296пасмурно
09.12.2022 08:00-14.97C-14.97C76295небольшой снег
09.12.2022 11:00-12.58C-12.58C76293небольшой снег
Дата и время наблюдения: 04.12.2022 13:42:22